createdAt,value
2023-07-26T00:02:07.841Z,64.56
2023-07-26T00:04:35.891Z,64.72
2023-07-26T00:07:03.921Z,64.57
2023-07-26T00:09:32.132Z,64.56
2023-07-26T00:12:00.256Z,64.75
2023-07-26T00:14:28.413Z,64.66
2023-07-26T00:16:56.844Z,64.80
2023-07-26T00:19:24.850Z,64.74
2023-07-26T00:21:52.805Z,64.74
2023-07-26T00:24:20.634Z,64.76
2023-07-26T00:26:48.672Z,64.62
2023-07-26T00:29:16.654Z,64.67
2023-07-26T00:31:44.812Z,64.74
2023-07-26T00:34:12.849Z,64.38
2023-07-26T00:36:40.761Z,64.41
2023-07-26T00:39:08.828Z,64.44
2023-07-26T00:41:37.057Z,64.56
2023-07-26T00:44:07.866Z,64.58
2023-07-26T00:46:36.048Z,64.53
2023-07-26T00:49:04.755Z,64.57
2023-07-26T00:51:37.100Z,64.51
2023-07-26T00:54:09.437Z,64.65
2023-07-26T00:56:37.110Z,64.80
2023-07-26T00:59:07.223Z,64.76
2023-07-26T01:01:35.818Z,64.80
2023-07-26T01:04:03.870Z,64.98
2023-07-26T01:07:08.556Z,64.96
2023-07-26T01:10:06.379Z,64.95
2023-07-26T01:12:54.361Z,64.71
2023-07-26T01:15:34.258Z,64.72
2023-07-26T01:18:09.883Z,64.58
2023-07-26T01:20:38.234Z,64.73
2023-07-26T01:23:06.848Z,64.84
2023-07-26T01:25:35.403Z,64.75
2023-07-26T01:28:03.667Z,64.70
2023-07-26T01:30:33.957Z,65.00
2023-07-26T01:33:06.171Z,65.03
2023-07-26T01:35:36.512Z,65.14
2023-07-26T01:38:05.308Z,65.16
2023-07-26T01:40:34.252Z,65.19
2023-07-26T01:43:02.248Z,65.13
2023-07-26T01:45:30.375Z,65.47
2023-07-26T01:47:59.115Z,65.53
2023-07-26T01:50:27.081Z,65.69
2023-07-26T01:52:54.882Z,65.83
2023-07-26T01:55:22.973Z,65.78
2023-07-26T01:57:51.060Z,65.70
2023-07-26T02:00:18.899Z,65.59
2023-07-26T02:02:47.137Z,65.65
2023-07-26T02:05:15.226Z,65.82
2023-07-26T02:07:43.133Z,65.92
2023-07-26T02:10:11.064Z,66.03
2023-07-26T02:12:38.960Z,66.17
2023-07-26T02:15:07.333Z,66.19
2023-07-26T02:17:35.967Z,66.39
2023-07-26T02:20:05.832Z,66.27
2023-07-26T02:22:34.002Z,66.34
2023-07-26T02:25:01.960Z,66.38
2023-07-26T02:27:30.011Z,66.42
2023-07-26T02:29:57.853Z,66.45
2023-07-26T02:32:25.859Z,66.61
2023-07-26T02:34:53.994Z,66.77
2023-07-26T02:37:21.927Z,66.80
2023-07-26T02:39:50.377Z,66.79
2023-07-26T02:42:18.356Z,66.99
2023-07-26T02:44:47.249Z,67.02
2023-07-26T02:47:15.381Z,66.93
2023-07-26T02:49:43.211Z,66.93
2023-07-26T02:52:11.201Z,66.97
2023-07-26T02:54:39.054Z,67.07
2023-07-26T02:57:07.239Z,67.27
2023-07-26T02:59:35.224Z,67.47
2023-07-26T03:02:03.247Z,67.46
2023-07-26T03:04:31.207Z,67.44
2023-07-26T03:06:59.062Z,67.50
2023-07-26T03:09:26.952Z,67.58
2023-07-26T03:11:54.940Z,67.53
2023-07-26T03:14:22.783Z,67.63
2023-07-26T03:16:51.046Z,67.68
2023-07-26T03:19:23.985Z,67.60
2023-07-26T03:21:51.893Z,67.93
2023-07-26T03:24:19.705Z,67.99
2023-07-26T03:26:47.868Z,67.86
2023-07-26T03:29:15.949Z,67.94
2023-07-26T03:31:43.807Z,67.90
2023-07-26T03:34:11.718Z,67.55
2023-07-26T03:36:39.650Z,67.78
2023-07-26T03:39:07.587Z,67.72
2023-07-26T03:41:35.337Z,67.87
2023-07-26T03:44:03.691Z,68.10
2023-07-26T03:46:31.915Z,68.16
2023-07-26T03:49:00.657Z,68.22
2023-07-26T03:51:28.455Z,68.19
2023-07-26T03:53:56.346Z,68.15
2023-07-26T03:56:24.241Z,68.08
2023-07-26T03:58:52.040Z,68.11
2023-07-26T04:01:20.120Z,68.29
2023-07-26T04:03:48.217Z,68.28
2023-07-26T04:06:16.748Z,68.25
2023-07-26T04:08:44.684Z,68.55
2023-07-26T04:11:12.921Z,68.52
2023-07-26T04:13:40.984Z,68.54
2023-07-26T04:16:20.075Z,68.74
2023-07-26T04:18:48.666Z,68.63
2023-07-26T04:21:18.634Z,68.57
2023-07-26T04:23:47.384Z,68.63
2023-07-26T04:26:15.152Z,68.71
2023-07-26T04:28:43.157Z,68.66
2023-07-26T04:31:11.082Z,68.73
2023-07-26T04:33:40.638Z,68.71
2023-07-26T04:36:08.665Z,68.91
2023-07-26T04:38:36.391Z,68.87
2023-07-26T04:41:05.625Z,68.79
2023-07-26T04:43:33.530Z,68.89
2023-07-26T04:46:01.518Z,68.91
2023-07-26T04:48:29.549Z,69.07
2023-07-26T04:50:57.426Z,69.19
2023-07-26T04:53:25.188Z,69.18
2023-07-26T04:55:53.294Z,69.17
2023-07-26T04:58:21.037Z,69.28
2023-07-26T05:00:49.017Z,69.06
2023-07-26T05:03:17.197Z,68.99
2023-07-26T05:05:51.569Z,68.93
2023-07-26T05:08:20.014Z,68.99
2023-07-26T05:10:54.090Z,69.10
2023-07-26T05:13:24.416Z,69.33
2023-07-26T05:15:52.286Z,69.39
2023-07-26T05:18:20.060Z,69.29
2023-07-26T05:20:54.570Z,69.37
2023-07-26T05:23:22.604Z,69.33
2023-07-26T05:25:50.486Z,69.33
2023-07-26T05:28:18.500Z,69.56
2023-07-26T05:30:46.280Z,69.56
2023-07-26T05:33:14.406Z,69.46
2023-07-26T05:35:42.220Z,69.55
2023-07-26T05:38:10.220Z,69.65
2023-07-26T05:40:38.071Z,69.46
2023-07-26T05:43:05.974Z,69.56
2023-07-26T05:45:34.146Z,69.44
2023-07-26T05:48:02.004Z,69.46
2023-07-26T05:50:29.942Z,69.49
2023-07-26T05:52:57.886Z,69.40
2023-07-26T05:55:25.737Z,69.63
2023-07-26T05:57:54.114Z,69.65
2023-07-26T06:00:22.571Z,69.50
2023-07-26T06:02:50.446Z,69.62
2023-07-26T06:05:18.317Z,69.74
2023-07-26T06:07:46.455Z,69.85
2023-07-26T06:10:14.979Z,69.96
2023-07-26T06:12:43.307Z,69.99
2023-07-26T06:15:11.253Z,70.14
2023-07-26T06:17:39.522Z,70.02
2023-07-26T06:20:07.931Z,69.91
2023-07-26T06:22:35.751Z,70.02
2023-07-26T06:25:04.458Z,69.95
2023-07-26T06:27:32.563Z,69.98
2023-07-26T06:30:00.503Z,69.95
2023-07-26T06:32:28.721Z,70.24
2023-07-26T06:34:58.536Z,70.07
2023-07-26T06:37:26.317Z,70.25
2023-07-26T06:39:54.302Z,70.19
2023-07-26T06:42:22.178Z,70.19
2023-07-26T06:44:49.969Z,70.26
2023-07-26T06:47:18.488Z,70.44
2023-07-26T06:49:46.675Z,70.15
2023-07-26T06:52:14.716Z,70.07
2023-07-26T06:54:42.711Z,70.22
2023-07-26T06:57:11.462Z,69.95
2023-07-26T06:59:39.253Z,69.84
2023-07-26T07:02:07.576Z,69.92
2023-07-26T07:04:36.145Z,69.97
2023-07-26T07:07:04.239Z,70.16
2023-07-26T07:09:32.101Z,70.26
2023-07-26T07:12:00.318Z,70.30
2023-07-26T07:14:28.383Z,70.14
2023-07-26T07:16:56.469Z,70.35
2023-07-26T07:19:24.242Z,70.37
2023-07-26T07:21:52.421Z,70.20
2023-07-26T07:24:20.380Z,70.11
2023-07-26T07:26:48.355Z,69.90
2023-07-26T07:29:16.187Z,70.19
2023-07-26T07:31:44.174Z,70.29
2023-07-26T07:34:11.985Z,70.17
2023-07-26T07:36:39.924Z,70.30
2023-07-26T07:39:10.564Z,70.26
2023-07-26T07:41:39.088Z,70.34
2023-07-26T07:44:07.164Z,70.35
2023-07-26T07:46:35.270Z,70.28
2023-07-26T07:49:03.898Z,70.37
2023-07-26T07:51:32.232Z,70.32
2023-07-26T07:54:00.281Z,70.09
2023-07-26T07:56:28.064Z,70.14
2023-07-26T07:58:56.020Z,70.33
2023-07-26T08:01:25.281Z,70.20
2023-07-26T08:03:53.222Z,70.39
2023-07-26T08:06:21.192Z,70.49
2023-07-26T08:08:49.014Z,70.33
2023-07-26T08:11:16.796Z,70.50
2023-07-26T08:13:44.992Z,70.45
2023-07-26T08:16:13.210Z,70.20
2023-07-26T08:18:41.224Z,70.19
2023-07-26T08:21:12.443Z,70.15
2023-07-26T08:23:41.169Z,70.01
2023-07-26T08:26:10.652Z,70.11
2023-07-26T08:28:38.598Z,70.21
2023-07-26T08:31:06.650Z,70.55
2023-07-26T08:33:34.533Z,70.49
2023-07-26T08:36:02.970Z,70.08
2023-07-26T08:38:31.102Z,69.92
2023-07-26T08:40:59.262Z,70.25
2023-07-26T08:43:32.115Z,69.73
2023-07-26T08:46:04.352Z,69.74
2023-07-26T08:48:33.623Z,70.12
2023-07-26T08:51:02.388Z,69.96
2023-07-26T08:53:31.133Z,70.03
2023-07-26T08:55:59.303Z,70.11
2023-07-26T08:58:27.799Z,70.31
2023-07-26T09:00:55.851Z,70.10
2023-07-26T09:03:24.015Z,70.00
2023-07-26T09:06:12.352Z,70.04
2023-07-26T09:08:40.290Z,69.98
2023-07-26T09:11:21.977Z,70.17
2023-07-26T09:13:56.647Z,70.30
2023-07-26T09:16:28.715Z,70.20
2023-07-26T09:19:05.940Z,69.83
2023-07-26T09:21:37.067Z,69.99
2023-07-26T09:24:05.792Z,69.88
2023-07-26T09:26:42.323Z,69.60
2023-07-26T09:29:12.590Z,69.83
2023-07-26T09:31:44.520Z,69.55
2023-07-26T09:34:14.681Z,69.54
2023-07-26T09:36:47.670Z,69.45
2023-07-26T09:39:17.405Z,69.27
2023-07-26T09:41:47.257Z,69.15
2023-07-26T09:44:20.273Z,69.08
2023-07-26T09:46:51.957Z,69.17
2023-07-26T09:49:24.902Z,69.15
2023-07-26T09:54:33.075Z,68.83
2023-07-26T09:57:02.439Z,68.87
2023-07-26T09:59:31.614Z,69.04
2023-07-26T10:02:04.977Z,69.17
2023-07-26T10:04:43.077Z,68.38
2023-07-26T10:07:13.602Z,67.88
2023-07-26T10:09:45.100Z,67.97
2023-07-26T10:12:13.519Z,67.87
2023-07-26T10:14:41.417Z,67.80
2023-07-26T10:17:11.562Z,67.37
2023-07-26T10:19:40.263Z,67.12
2023-07-26T10:22:08.533Z,67.04
2023-07-26T10:24:38.160Z,66.67
2023-07-26T10:27:06.484Z,66.61
2023-07-26T10:29:34.482Z,65.86
2023-07-26T10:32:07.776Z,65.62
2023-07-26T10:34:35.988Z,65.51
2023-07-26T10:37:20.695Z,65.03
2023-07-26T10:39:50.600Z,64.60
2023-07-26T10:42:26.440Z,63.52
2023-07-26T10:44:56.377Z,63.92
2023-07-26T10:47:24.508Z,64.03
2023-07-26T10:49:55.345Z,63.02
2023-07-26T10:52:23.450Z,62.92
2023-07-26T10:54:52.140Z,63.20
2023-07-26T10:57:21.589Z,62.64
2023-07-26T10:59:57.938Z,62.78
2023-07-26T11:02:38.738Z,63.07
2023-07-26T11:05:14.314Z,62.72
2023-07-26T11:08:09.180Z,62.44
2023-07-26T11:10:50.609Z,62.64
2023-07-26T11:13:28.428Z,63.42
2023-07-26T11:16:15.602Z,62.95
2023-07-26T11:18:44.558Z,62.91
2023-07-26T11:21:16.934Z,62.33
2023-07-26T11:23:45.907Z,62.19
2023-07-26T11:26:13.690Z,62.76
2023-07-26T11:28:42.576Z,62.64
2023-07-26T11:31:20.359Z,61.62
2023-07-26T11:33:49.354Z,61.67
2023-07-26T11:36:21.645Z,61.77
2023-07-26T11:38:49.798Z,61.89
2023-07-26T11:41:21.034Z,61.42
2023-07-26T11:43:49.598Z,60.89
2023-07-26T11:46:27.379Z,60.51
2023-07-26T11:48:55.923Z,60.80
2023-07-26T11:51:23.909Z,60.72
2023-07-26T11:53:56.891Z,60.11
2023-07-26T11:56:32.622Z,59.59
2023-07-26T11:59:01.452Z,59.13
2023-07-26T12:01:30.429Z,59.15
2023-07-26T12:03:58.694Z,58.60
2023-07-26T12:06:34.695Z,58.71
2023-07-26T12:09:13.105Z,58.35
2023-07-26T12:11:43.505Z,58.18
2023-07-26T12:14:16.854Z,57.71
2023-07-26T12:16:54.886Z,57.45
2023-07-26T12:19:25.298Z,57.21
2023-07-26T12:21:53.965Z,57.47
2023-07-26T12:24:22.133Z,57.51
2023-07-26T12:26:53.193Z,57.02
2023-07-26T12:29:29.368Z,56.73
2023-07-26T12:32:04.608Z,56.25
2023-07-26T12:34:34.400Z,56.07
2023-07-26T12:37:02.567Z,55.43
2023-07-26T12:39:30.945Z,55.32
2023-07-26T12:41:59.085Z,55.18
2023-07-26T12:44:28.210Z,54.66
2023-07-26T12:47:26.775Z,54.29
2023-07-26T12:49:44.757Z,54.01
2023-07-26T12:52:12.721Z,53.90
2023-07-26T12:54:40.707Z,53.59
2023-07-26T12:57:08.653Z,53.75
2023-07-26T12:59:36.718Z,53.76
2023-07-26T13:02:05.903Z,53.39
2023-07-26T13:04:33.995Z,53.50
2023-07-26T13:07:02.003Z,53.62
2023-07-26T13:09:29.848Z,53.47
2023-07-26T13:11:58.052Z,53.50
2023-07-26T13:14:26.277Z,52.96
2023-07-26T13:16:54.015Z,53.04
2023-07-26T13:19:22.160Z,52.91
2023-07-26T13:21:49.896Z,53.00
2023-07-26T13:24:18.079Z,53.56
2023-07-26T13:26:46.090Z,53.04
2023-07-26T13:29:13.935Z,52.62
2023-07-26T13:31:41.803Z,53.06
2023-07-26T13:34:09.807Z,53.02
2023-07-26T13:36:37.691Z,52.79
2023-07-26T13:39:24.167Z,52.97
2023-07-26T13:41:52.408Z,52.71
2023-07-26T13:44:21.068Z,52.15
2023-07-26T13:46:49.026Z,52.72
2023-07-26T13:49:17.382Z,53.00
2023-07-26T13:51:48.382Z,52.34
2023-07-26T13:54:16.296Z,52.18
2023-07-26T13:56:44.119Z,51.91
2023-07-26T13:59:12.084Z,52.41
2023-07-26T14:01:40.077Z,52.07
2023-07-26T14:04:08.418Z,52.20
2023-07-26T14:06:36.401Z,52.22
2023-07-26T14:09:05.616Z,51.86
2023-07-26T14:11:34.882Z,52.02
2023-07-26T14:14:04.394Z,52.66
2023-07-26T14:16:32.381Z,52.69
2023-07-26T14:19:00.656Z,52.31
2023-07-26T14:21:28.437Z,51.86
2023-07-26T14:23:56.387Z,51.41
2023-07-26T14:26:24.605Z,51.51
2023-07-26T14:28:52.490Z,51.71
2023-07-26T14:31:20.559Z,51.21
2023-07-26T14:33:49.037Z,51.05
2023-07-26T14:36:16.952Z,50.78
2023-07-26T14:38:44.783Z,50.90
2023-07-26T14:41:12.798Z,50.55
2023-07-26T14:43:41.119Z,50.81
2023-07-26T14:46:10.378Z,50.87
2023-07-26T14:48:38.667Z,51.14
2023-07-26T14:51:06.525Z,50.89
2023-07-26T14:53:34.501Z,50.62
2023-07-26T14:56:02.434Z,50.37
2023-07-26T14:58:30.186Z,49.86
2023-07-26T15:00:58.250Z,50.27
2023-07-26T15:03:26.457Z,50.11
2023-07-26T15:05:54.843Z,50.21
2023-07-26T15:08:22.806Z,50.29
2023-07-26T15:10:51.727Z,50.04
2023-07-26T15:13:19.701Z,49.24
2023-07-26T15:15:47.458Z,48.80
2023-07-26T15:18:15.486Z,48.80
2023-07-26T15:20:43.893Z,48.97
2023-07-26T15:23:13.081Z,48.95
2023-07-26T15:25:41.491Z,48.55
2023-07-26T15:28:09.529Z,48.54
2023-07-26T15:30:38.228Z,47.74
2023-07-26T15:33:06.826Z,46.81
2023-07-26T15:35:37.906Z,47.15
2023-07-26T15:38:07.240Z,47.22
2023-07-26T15:43:22.973Z,47.07
2023-07-26T15:48:22.540Z,47.33
2023-07-26T15:53:22.581Z,47.22
2023-07-26T15:55:53.771Z,48.26
2023-07-26T15:58:27.775Z,48.03
2023-07-26T16:00:58.925Z,46.19
2023-07-26T16:11:00.754Z,45.90
2023-07-26T16:13:28.565Z,45.66
2023-07-26T16:18:28.689Z,44.54
2023-07-26T16:23:28.081Z,44.64
2023-07-26T16:25:56.057Z,44.83
2023-07-26T16:28:23.854Z,44.56
2023-07-26T16:30:51.847Z,44.54
2023-07-26T16:33:20.016Z,44.49
2023-07-26T16:35:47.889Z,44.88
2023-07-26T16:38:15.957Z,44.80
2023-07-26T16:40:43.826Z,44.21
2023-07-26T16:43:15.141Z,44.57
2023-07-26T16:45:43.096Z,44.50
2023-07-26T16:48:11.121Z,44.24
2023-07-26T16:50:39.048Z,44.79
2023-07-26T16:53:08.304Z,44.76
2023-07-26T16:55:36.248Z,45.17
2023-07-26T16:58:04.442Z,45.15
2023-07-26T17:00:33.009Z,45.11
2023-07-26T17:03:01.340Z,45.25
2023-07-26T17:05:29.584Z,45.52
2023-07-26T17:07:57.645Z,45.65
2023-07-26T17:10:25.681Z,45.60
2023-07-26T17:12:53.661Z,45.88
2023-07-26T17:15:21.916Z,46.09
2023-07-26T17:17:50.035Z,46.17
2023-07-26T17:20:18.733Z,46.20
2023-07-26T17:22:47.053Z,46.10
2023-07-26T17:25:15.283Z,46.36
2023-07-26T17:27:43.145Z,46.49
2023-07-26T17:30:11.797Z,46.52
2023-07-26T17:32:39.788Z,46.71
2023-07-26T17:35:10.098Z,46.64
2023-07-26T17:37:38.634Z,46.63
2023-07-26T17:40:07.152Z,46.78
2023-07-26T17:42:35.523Z,46.58
2023-07-26T17:45:05.202Z,46.84
2023-07-26T17:47:32.988Z,46.87
2023-07-26T17:50:00.930Z,46.91
2023-07-26T17:52:29.287Z,46.77
2023-07-26T17:54:57.253Z,46.57
2023-07-26T17:57:25.778Z,46.79
2023-07-26T17:59:53.752Z,46.61
2023-07-26T18:02:21.520Z,46.43
2023-07-26T18:04:49.338Z,46.54
2023-07-26T18:07:17.406Z,45.95
2023-07-26T18:09:45.943Z,45.75
2023-07-26T18:12:14.044Z,45.79
2023-07-26T18:14:41.887Z,45.73
2023-07-26T18:17:09.927Z,45.90
2023-07-26T18:19:37.812Z,45.91
2023-07-26T18:22:06.317Z,46.10
2023-07-26T18:24:34.280Z,45.89
2023-07-26T18:27:02.305Z,45.93
2023-07-26T18:29:30.221Z,46.10
2023-07-26T18:31:58.099Z,46.08
2023-07-26T18:34:25.914Z,46.28
2023-07-26T18:36:53.956Z,46.21
2023-07-26T18:39:22.325Z,46.33
2023-07-26T18:41:50.238Z,46.67
2023-07-26T18:44:18.275Z,47.28
2023-07-26T18:46:46.268Z,46.96
2023-07-26T18:49:14.126Z,47.92
2023-07-26T18:51:41.973Z,47.79
2023-07-26T18:54:09.784Z,48.16
2023-07-26T18:56:37.661Z,48.65
2023-07-26T18:59:05.565Z,48.00
2023-07-26T19:01:34.050Z,48.07
2023-07-26T19:04:02.063Z,48.71
2023-07-26T19:06:30.060Z,48.02
2023-07-26T19:08:58.134Z,47.83
2023-07-26T19:11:27.609Z,47.88
2023-07-26T19:13:55.829Z,47.61
2023-07-26T19:16:24.327Z,47.83
2023-07-26T19:18:53.552Z,47.95
2023-07-26T19:21:21.582Z,47.57
2023-07-26T19:23:49.529Z,47.95
2023-07-26T19:26:17.954Z,47.93
2023-07-26T19:28:47.045Z,47.70
2023-07-26T19:31:15.703Z,47.94
2023-07-26T19:33:44.479Z,47.70
2023-07-26T19:36:12.484Z,47.42
2023-07-26T19:38:40.861Z,47.26
2023-07-26T19:41:19.675Z,47.36
2023-07-26T19:43:48.963Z,47.61
2023-07-26T19:46:18.064Z,47.19
2023-07-26T19:48:51.703Z,47.41
2023-07-26T19:51:20.526Z,47.26
2023-07-26T19:53:48.377Z,47.39
2023-07-26T19:56:16.277Z,47.49
2023-07-26T19:58:44.192Z,47.70
2023-07-26T20:01:12.148Z,47.99
2023-07-26T20:03:40.098Z,47.87
2023-07-26T20:06:08.096Z,48.08
2023-07-26T20:08:35.896Z,48.26
2023-07-26T20:11:03.903Z,48.35
2023-07-26T20:13:31.992Z,48.35
2023-07-26T20:15:59.839Z,48.32
2023-07-26T20:18:28.062Z,48.32
2023-07-26T20:20:56.595Z,48.68
2023-07-26T20:23:24.547Z,49.15
2023-07-26T20:25:52.482Z,49.55
2023-07-26T20:28:20.395Z,49.22
2023-07-26T20:30:48.263Z,49.81
2023-07-26T20:33:16.252Z,50.03
2023-07-26T20:35:47.109Z,49.90
2023-07-26T20:38:15.002Z,50.10
2023-07-26T20:40:42.812Z,50.49
2023-07-26T20:43:10.747Z,50.48
2023-07-26T20:45:38.935Z,50.55
2023-07-26T20:48:07.190Z,50.74
2023-07-26T20:50:36.446Z,51.01
2023-07-26T20:53:04.597Z,51.14
2023-07-26T20:55:32.433Z,51.37
2023-07-26T20:58:00.292Z,51.70
2023-07-26T21:00:47.018Z,51.46
2023-07-26T21:03:14.940Z,51.73
2023-07-26T21:05:46.516Z,51.82
2023-07-26T21:08:14.683Z,51.94
2023-07-26T21:10:43.404Z,52.08
2023-07-26T21:13:11.213Z,52.45
2023-07-26T21:15:39.185Z,52.58
2023-07-26T21:18:07.242Z,52.90
2023-07-26T21:20:36.356Z,52.80
2023-07-26T21:23:04.239Z,52.97
2023-07-26T21:25:32.200Z,53.55
2023-07-26T21:28:00.140Z,53.41
2023-07-26T21:30:28.832Z,53.49
2023-07-26T21:32:57.066Z,54.12
2023-07-26T21:35:24.908Z,53.98
2023-07-26T21:37:52.693Z,54.44
2023-07-26T21:40:20.664Z,54.74
2023-07-26T21:42:48.514Z,54.72
2023-07-26T21:45:16.375Z,54.60
2023-07-26T21:47:44.337Z,54.84
2023-07-26T21:50:12.427Z,55.15
2023-07-26T21:52:40.292Z,55.18
2023-07-26T21:55:08.823Z,55.18
2023-07-26T21:57:40.041Z,55.58
2023-07-26T22:00:12.509Z,55.74
2023-07-26T22:02:40.634Z,55.81
2023-07-26T22:05:09.624Z,55.79
2023-07-26T22:07:37.714Z,55.97
2023-07-26T22:10:05.978Z,56.18
2023-07-26T22:12:34.004Z,56.35
2023-07-26T22:15:01.996Z,56.57
2023-07-26T22:17:30.189Z,56.98
2023-07-26T22:19:58.333Z,56.95
2023-07-26T22:22:27.440Z,57.17
2023-07-26T22:24:55.663Z,57.29
2023-07-26T22:27:23.618Z,57.60
2023-07-26T22:29:51.706Z,57.63
2023-07-26T22:32:19.549Z,57.87
2023-07-26T22:34:47.539Z,57.94
2023-07-26T22:37:15.521Z,57.83
2023-07-26T22:39:43.408Z,58.29
2023-07-26T22:42:11.361Z,58.26
2023-07-26T22:44:39.176Z,58.18
2023-07-26T22:47:08.103Z,58.11
2023-07-26T22:49:36.214Z,58.10
2023-07-26T22:52:04.335Z,58.33
2023-07-26T22:54:32.176Z,58.34
2023-07-26T22:57:00.098Z,58.42
2023-07-26T22:59:28.091Z,58.25
2023-07-26T23:01:56.123Z,58.06
2023-07-26T23:04:23.904Z,58.13
2023-07-26T23:06:51.978Z,58.36
2023-07-26T23:09:19.789Z,58.51
2023-07-26T23:11:47.534Z,58.49
2023-07-26T23:14:15.570Z,58.64
2023-07-26T23:16:43.465Z,58.58
2023-07-26T23:19:11.324Z,58.67
2023-07-26T23:21:39.417Z,58.76
2023-07-26T23:24:07.493Z,59.10
2023-07-26T23:26:35.837Z,59.05
2023-07-26T23:29:04.170Z,59.45
2023-07-26T23:31:32.054Z,59.54
2023-07-26T23:34:00.810Z,59.51
2023-07-26T23:36:28.634Z,59.54
2023-07-26T23:38:56.760Z,59.56
2023-07-26T23:41:24.878Z,59.64
2023-07-26T23:43:52.846Z,59.61
2023-07-26T23:46:20.739Z,59.92
2023-07-26T23:48:51.239Z,60.25
2023-07-26T23:51:19.183Z,59.96
2023-07-26T23:53:47.329Z,60.27
2023-07-26T23:56:15.311Z,59.87
2023-07-26T23:58:43.122Z,59.96
